This is the latest recevied weather packets stored in our database for station/object AA7F. If no packets are shown the sender has not sent any weather packets the latest 1 day(s).
| Time | Temp. | Humidity | Pressure | Rain* | Wind** | Luminosity | Snow |
|---|---|---|---|---|---|---|---|
| 1778078889 | 12.22° C | 64% | 1014.4 hPa | 0 mm | - | 237 W/m² | - |
| 1778077679 | 11.67° C | 68% | 1014.5 hPa | 0 mm | - | 177 W/m² | - |
| 1778076470 | 10.56° C | 70% | 1014.3 hPa | 0 mm | - | 124 W/m² | - |
| 1778075257 | 10° C | 72% | 1014.4 hPa | 0 mm | - | 53 W/m² | - |
| 1778074347 | 10° C | 72% | 1014.3 hPa | 0 mm | - | 42 W/m² | - |
| 1778074044 | 10° C | 71% | 1014.4 hPa | 0 mm | - | 39 W/m² | - |
| 1778073439 | 8.89° C | 73% | 1014.1 hPa | 0 mm | - | 32 W/m² | - |
| 1778072832 | 9.44° C | 72% | 1013.8 hPa | 0 mm | - | 25 W/m² | - |
| 1778072227 | 8.89° C | 73% | 1013.8 hPa | 0 mm | - | 19 W/m² | - |
| 1778071320 | 9.44° C | 70% | 1013.7 hPa | 0 mm | - | 10 W/m² | - |
| 1778071017 | 10° C | 70% | 1013.7 hPa | 0 mm | - | 8 W/m² | - |
| 1778070716 | 10° C | 68% | 1013.7 hPa | 0 mm | - | 4 W/m² | - |
| 1778070110 | 8.89° C | 72% | 1013.8 hPa | 0 mm | - | 0 W/m² | - |
| 1778068597 | 10° C | 70% | 1013.3 hPa | 0 mm | - | 0 W/m² | - |
| 1778068295 | 10° C | 69% | 1013.5 hPa | 0 mm | - | 0 W/m² | - |
| 1778067992 | 10.56° C | 68% | 1013.4 hPa | 0 mm | - | 0 W/m² | - |
| 1778067690 | 10.56° C | 68% | 1013.5 hPa | 0 mm | - | 0 W/m² | - |
| 1778067388 | 10° C | 68% | 1013.3 hPa | 0 mm | - | 0 W/m² | - |
| 1778067085 | 10° C | 68% | 1013.3 hPa | 0 mm | - | 0 W/m² | - |
| 1778066781 | 10° C | 68% | 1013.3 hPa | 0 mm | - | 0 W/m² | - |
| 1778066479 | 10° C | 69% | 1013.4 hPa | 0 mm | - | 0 W/m² | - |
| 1778066176 | 11.11° C | 67% | 1013.4 hPa | 0 mm | - | 0 W/m² | - |
| 1778065874 | 11.11° C | 65% | 1013.5 hPa | 0 mm | - | 0 W/m² | - |
| 1778065571 | 11.11° C | 65% | 1013.4 hPa | 0 mm | - | 0 W/m² | - |
| 1778064360 | 10.56° C | 68% | 1013.1 hPa | 0 mm | - | 0 W/m² | - |
* Rain latest hour (hover to see other rain measurements)
** Current wind speed in m/s (hover to see current wind gust speed)